Time;durP1;ratioP1;P1;durP2;ratioP2;P2;SDS_P1;SDS_P2;PMS_P1;PMS_P2;Temp;Humidity;BMP_temperature;BMP_pressure;BME280_temperature;BME280_humidity;BME280_pressure;Samples;Min_cycle;Max_cycle;Signal;HPM_P1;HPM_P2
2022/07/09 00:00:39;;;;;;;8.47;3.63;;;;;;;15.66;96.25;102484.53;5032210;28;20602;-44
2022/07/09 00:03:06;;;;;;;5.70;3.43;;;;;;;15.69;96.43;102483.31;5031486;28;20479;-46
2022/07/09 00:05:34;;;;;;;3.80;3.33;;;;;;;15.68;96.15;102476.28;5032256;28;20848;-44
2022/07/09 00:08:02;;;;;;;6.13;3.57;;;;;;;15.69;96.24;102473.41;5032262;28;20437;-44
2022/07/09 00:10:30;;;;;;;3.90;3.33;;;;;;;15.71;96.62;102476.72;5032119;28;20447;-43
2022/07/09 00:12:57;;;;;;;4.73;4.00;;;;;;;15.70;96.49;102477.75;5031379;28;20466;-44
2022/07/09 00:15:25;;;;;;;4.20;3.90;;;;;;;15.71;96.56;102481.28;5032005;28;20432;-46
2022/07/09 00:17:54;;;;;;;8.93;3.73;;;;;;;15.73;96.68;102482.75;5031981;28;20436;-44
2022/07/09 00:20:22;;;;;;;4.63;3.83;;;;;;;15.72;96.70;102472.19;5031890;28;20432;-44
2022/07/09 00:22:49;;;;;;;4.23;3.80;;;;;;;15.71;96.96;102476.72;5030567;28;20840;-44
2022/07/09 00:25:17;;;;;;;7.77;3.50;;;;;;;15.74;97.07;102475.53;5031810;28;20438;-45
2022/07/09 00:27:45;;;;;;;4.57;4.23;;;;;;;15.71;97.19;102465.16;5031724;28;20446;-43
2022/07/09 00:30:12;;;;;;;4.33;3.20;;;;;;;15.74;97.54;102468.28;5031785;28;20519;-44
2022/07/09 00:32:40;;;;;;;3.97;3.50;;;;;;;15.76;98.04;102468.09;5030119;28;20466;-44
2022/07/09 00:35:10;;;;;;;4.30;3.93;;;;;;;15.74;98.19;102460.19;5016165;28;20435;-43
2022/07/09 00:37:37;;;;;;;4.43;3.30;;;;;;;15.73;98.29;102458.56;5031817;28;20466;-46
2022/07/09 00:40:06;;;;;;;5.30;3.77;;;;;;;15.72;98.56;102462.25;5031762;28;20462;-43
2022/07/09 00:42:34;;;;;;;8.63;3.50;;;;;;;15.73;98.58;102458.56;5030779;28;20504;-45
2022/07/09 00:45:02;;;;;;;4.80;4.23;;;;;;;15.74;98.57;102457.50;5031878;28;20801;-44
2022/07/09 00:47:29;;;;;;;3.90;3.63;;;;;;;15.75;98.73;102464.56;5031496;28;20562;-44
2022/07/09 00:49:57;;;;;;;6.30;4.60;;;;;;;15.75;98.97;102461.03;5031732;28;20809;-43
2022/07/09 00:52:26;;;;;;;5.87;4.67;;;;;;;15.73;99.33;102458.56;5030905;28;20470;-44
2022/07/09 00:54:55;;;;;;;4.43;3.80;;;;;;;15.71;100.00;102465.16;5031582;28;20436;-43
2022/07/09 00:57:23;;;;;;;4.87;3.93;;;;;;;15.71;100.00;102463.28;5031399;28;21047;-43
2022/07/09 00:59:52;;;;;;;5.00;3.77;;;;;;;15.69;100.00;102459.94;5031703;28;20799;-44
2022/07/09 01:02:22;;;;;;;4.73;3.80;;;;;;;15.68;100.00;102449.41;5030799;28;20513;-44
2022/07/09 01:04:50;;;;;;;6.63;4.03;;;;;;;15.63;100.00;102447.25;5031593;28;20432;-44
2022/07/09 01:07:18;;;;;;;4.47;4.17;;;;;;;15.61;100.00;102443.09;5031330;28;20467;-44
2022/07/09 01:09:47;;;;;;;4.33;4.03;;;;;;;15.58;100.00;102440.78;5031664;28;20438;-42
2022/07/09 01:12:15;;;;;;;4.77;4.03;;;;;;;15.56;100.00;102438.25;5030607;28;20491;-44
2022/07/09 01:14:42;;;;;;;5.33;4.80;;;;;;;15.55;100.00;102433.94;5031567;28;20432;-47
2022/07/09 01:17:10;;;;;;;4.80;4.47;;;;;;;15.55;100.00;102436.63;5031372;28;20547;-43
2022/07/09 01:19:38;;;;;;;5.10;4.60;;;;;;;15.54;100.00;102426.03;5031369;28;20782;-45
2022/07/09 01:22:07;;;;;;;6.03;4.67;;;;;;;15.53;100.00;102422.50;5030395;28;20470;-43
2022/07/09 01:24:35;;;;;;;6.07;5.40;;;;;;;15.52;100.00;102423.53;5031467;28;20443;-44
2022/07/09 01:27:03;;;;;;;6.10;5.60;;;;;;;15.52;100.00;102417.31;5031137;28;20460;-44
2022/07/09 01:29:31;;;;;;;5.27;4.80;;;;;;;15.50;100.00;102417.53;5031221;28;20436;-43
2022/07/09 01:31:58;;;;;;;5.00;4.20;;;;;;;15.46;100.00;102417.03;5029781;28;20543;-44
2022/07/09 01:34:26;;;;;;;6.20;5.17;;;;;;;15.47;100.00;102404.47;5023804;28;20434;-43
2022/07/09 01:36:54;;;;;;;7.90;5.03;;;;;;;15.48;100.00;102406.09;5035056;28;20487;-44
2022/07/09 01:39:23;;;;;;;5.87;5.20;;;;;;;15.46;100.00;102408.13;5034823;28;20959;-45
2022/07/09 01:41:50;;;;;;;7.57;5.77;;;;;;;15.44;100.00;102404.81;5034434;28;20474;-43
2022/07/09 01:44:18;;;;;;;6.73;6.10;;;;;;;15.46;100.00;102405.44;5034574;28;20482;-44
2022/07/09 01:46:46;;;;;;;5.97;4.90;;;;;;;15.45;100.00;102403.75;5034611;28;20463;-44
2022/07/09 01:49:14;;;;;;;5.03;4.60;;;;;;;15.47;100.00;102393.72;5034594;28;20440;-44
2022/07/09 01:51:41;;;;;;;10.20;6.30;;;;;;;15.47;100.00;102397.22;5034311;28;20468;-44
2022/07/09 01:54:09;;;;;;;7.50;6.70;;;;;;;15.48;100.00;102387.28;5034519;28;20467;-44
2022/07/09 01:56:38;;;;;;;11.43;5.90;;;;;;;15.47;100.00;102391.81;5034561;28;20492;-44
2022/07/09 01:59:05;;;;;;;6.03;5.50;;;;;;;15.48;100.00;102384.59;5034595;28;20527;-43
2022/07/09 02:01:33;;;;;;;6.53;5.80;;;;;;;15.49;100.00;102386.28;5033787;28;20470;-45
2022/07/09 02:04:01;;;;;;;15.67;6.83;;;;;;;15.50;100.00;102375.31;5034318;28;21004;-43
2022/07/09 02:06:28;;;;;;;10.93;6.33;;;;;;;15.50;100.00;102374.50;5034306;28;20513;-44
2022/07/09 02:08:56;;;;;;;8.23;6.10;;;;;;;15.50;100.00;102369.94;5034295;28;20994;-44
2022/07/09 02:11:24;;;;;;;7.80;6.10;;;;;;;15.52;100.00;102363.56;5033800;28;20464;-46
2022/07/09 02:13:53;;;;;;;6.57;5.97;;;;;;;15.53;100.00;102363.34;5034009;28;20428;-44
2022/07/09 02:16:20;;;;;;;7.93;6.80;;;;;;;15.54;100.00;102365.03;5034080;28;20460;-44
2022/07/09 02:18:48;;;;;;;8.97;6.20;;;;;;;15.55;100.00;102358.63;5034350;28;20444;-45
2022/07/09 02:21:15;;;;;;;6.10;5.60;;;;;;;15.58;100.00;102343.97;5033700;28;20474;-44
2022/07/09 02:23:45;;;;;;;8.47;6.87;;;;;;;15.59;100.00;102353.72;5033686;28;20476;-45
2022/07/09 02:26:12;;;;;;;12.03;7.20;;;;;;;15.56;100.00;102346.84;5033928;28;20460;-47
2022/07/09 02:28:41;;;;;;;8.60;6.97;;;;;;;15.56;100.00;102359.47;5033848;28;20917;-45
2022/07/09 02:31:10;;;;;;;7.13;6.20;;;;;;;15.56;100.00;102356.78;5033670;28;20467;-48
2022/07/09 02:33:38;;;;;;;9.80;6.90;;;;;;;15.56;100.00;102352.22;5024938;28;20433;-43
2022/07/09 02:36:05;;;;;;;8.37;6.53;;;;;;;15.59;100.00;102345.66;5033728;28;21038;-45
2022/07/09 02:38:33;;;;;;;10.20;6.70;;;;;;;15.62;100.00;102351.44;5033870;28;20745;-47
2022/07/09 02:41:01;;;;;;;9.23;6.83;;;;;;;15.63;100.00;102352.28;5033211;28;20464;-44
2022/07/09 02:43:29;;;;;;;11.30;6.70;;;;;;;15.65;100.00;102352.94;5033688;28;20575;-46
2022/07/09 02:45:57;;;;;;;9.50;7.30;;;;;;;15.65;100.00;102353.75;5032877;28;20474;-47
2022/07/09 02:48:26;;;;;;;8.93;8.03;;;;;;;15.69;100.00;102351.53;5033864;28;20527;-44
2022/07/09 02:50:54;;;;;;;8.20;6.30;;;;;;;15.68;100.00;102334.56;5033227;28;20428;-48
2022/07/09 02:53:22;;;;;;;9.87;6.60;;;;;;;15.67;100.00;102338.28;5033381;28;20430;-43
2022/07/09 02:55:49;;;;;;;8.63;6.07;;;;;;;15.68;100.00;102329.16;5033474;28;20458;-44
2022/07/09 02:58:17;;;;;;;10.43;6.37;;;;;;;15.69;100.00;102328.16;5033447;28;20434;-45
2022/07/09 03:00:45;;;;;;;14.27;6.77;;;;;;;15.69;100.00;102317.41;5033016;28;20978;-45
2022/07/09 03:03:12;;;;;;;7.63;6.97;;;;;;;15.69;100.00;102325.47;5033189;28;20482;-44
2022/07/09 03:05:42;;;;;;;9.80;7.83;;;;;;;15.67;100.00;102319.47;5033170;28;21043;-44
2022/07/09 03:08:09;;;;;;;7.07;5.83;;;;;;;15.69;99.51;102317.41;5030891;28;20432;-44
2022/07/09 03:10:37;;;;;;;6.50;5.90;;;;;;;15.73;99.08;102317.84;5021741;28;20523;-43
2022/07/09 03:13:05;;;;;;;10.80;6.40;;;;;;;15.76;98.22;102315.63;5032402;28;20452;-45
2022/07/09 03:15:39;;;;;;;13.43;6.17;;;;;;;15.76;97.52;102310.25;5033167;28;20857;-44
2022/07/09 03:18:08;;;;;;;5.67;5.17;;;;;;;15.76;97.30;102304.88;5033172;28;20466;-46
2022/07/09 03:20:36;;;;;;;9.77;5.60;;;;;;;15.78;96.67;102301.97;5033024;28;20475;-43
2022/07/09 03:23:05;;;;;;;7.67;5.83;;;;;;;15.78;96.29;102305.50;5032058;28;20483;-44
2022/07/09 03:25:33;;;;;;;9.90;6.47;;;;;;;15.77;96.23;102298.44;5032973;28;20531;-43
2022/07/09 03:28:01;;;;;;;6.30;5.03;;;;;;;15.78;95.44;102308.19;5033029;28;20474;-43
2022/07/09 03:30:28;;;;;;;8.47;5.47;;;;;;;15.77;96.33;102314.56;5032876;28;20436;-44
2022/07/09 03:32:56;;;;;;;8.23;5.40;;;;;;;15.74;95.56;102308.78;5028947;28;20470;-44
2022/07/09 03:35:23;;;;;;;7.87;5.13;;;;;;;15.73;93.53;102315.16;5026682;28;20429;-43
2022/07/09 03:37:51;;;;;;;7.20;5.23;;;;;;;15.71;92.89;102306.47;5032855;28;20531;-46
2022/07/09 03:40:20;;;;;;;8.60;5.70;;;;;;;15.70;94.12;102310.16;5032779;28;20530;-43
2022/07/09 03:42:48;;;;;;;5.83;5.20;;;;;;;15.68;93.65;102306.84;5031885;28;20474;-44
2022/07/09 03:45:15;;;;;;;6.33;5.10;;;;;;;15.66;93.07;102314.25;5032496;28;20482;-44
2022/07/09 03:47:43;;;;;;;8.73;6.10;;;;;;;15.67;92.54;102311.41;5032263;28;20980;-44
2022/07/09 03:50:11;;;;;;;7.73;5.27;;;;;;;15.71;92.17;102293.03;5032426;28;20527;-43
2022/07/09 03:52:39;;;;;;;7.63;5.30;;;;;;;15.70;93.87;102302.94;5031637;28;20492;-46
2022/07/09 03:55:07;;;;;;;8.00;5.70;;;;;;;15.73;95.28;102299.88;5032456;28;20473;-44
2022/07/09 03:57:36;;;;;;;7.33;5.40;;;;;;;15.77;95.70;102293.06;5032257;28;20456;-44
2022/07/09 04:00:06;;;;;;;6.17;5.50;;;;;;;15.83;96.08;102289.59;5032273;28;20937;-44
2022/07/09 04:02:34;;;;;;;9.43;5.13;;;;;;;15.88;96.62;102291.72;5031467;28;20474;-44
2022/07/09 04:05:01;;;;;;;8.67;5.50;;;;;;;15.90;97.52;102293.19;5032311;28;20477;-46
2022/07/09 04:07:29;;;;;;;6.30;5.70;;;;;;;15.94;97.83;102290.94;5032204;28;20821;-44
2022/07/09 04:09:57;;;;;;;8.57;5.53;;;;;;;15.96;98.59;102289.72;5032204;28;20436;-46
2022/07/09 04:12:25;;;;;;;8.30;5.87;;;;;;;15.98;99.03;102295.72;5031365;28;20478;-46
2022/07/09 04:14:54;;;;;;;8.03;5.83;;;;;;;15.95;100.00;102301.50;5032114;28;20432;-43
2022/07/09 04:17:21;;;;;;;7.50;5.00;;;;;;;15.94;100.00;102307.09;5032250;28;20464;-44
2022/07/09 04:19:49;;;;;;;7.33;4.93;;;;;;;15.87;98.17;102307.03;5032064;28;20447;-44
2022/07/09 04:22:17;;;;;;;5.10;4.43;;;;;;;15.84;97.64;102299.34;5031373;28;20464;-46
2022/07/09 04:24:44;;;;;;;5.60;5.00;;;;;;;15.83;95.71;102296.84;5031795;28;20471;-45
2022/07/09 04:27:12;;;;;;;6.77;5.03;;;;;;;15.85;95.05;102292.09;5031818;28;20823;-48
2022/07/09 04:29:40;;;;;;;6.93;5.27;;;;;;;15.82;95.95;102296.03;5031728;28;20545;-45
2022/07/09 04:32:09;;;;;;;5.43;4.90;;;;;;;15.88;95.88;102289.03;5030291;28;20833;-45
2022/07/09 04:34:37;;;;;;;5.17;4.40;;;;;;;15.87;96.90;102290.88;5023615;28;20428;-45
2022/07/09 04:37:05;;;;;;;6.00;5.20;;;;;;;15.89;96.64;102294.19;5031712;28;20985;-43
2022/07/09 04:39:33;;;;;;;7.17;4.93;;;;;;;15.97;96.55;102302.16;5031678;28;20972;-44
2022/07/09 04:42:00;;;;;;;7.77;5.27;;;;;;;15.98;97.59;102297.59;5031163;28;20482;-47
2022/07/09 04:44:28;;;;;;;6.63;4.90;;;;;;;15.98;97.81;102286.81;5031714;28;20558;-45
2022/07/09 04:46:55;;;;;;;6.93;4.07;;;;;;;16.03;96.98;102287.94;5031385;28;20563;-44
2022/07/09 04:49:25;;;;;;;4.27;3.87;;;;;;;16.12;96.36;102295.84;5031711;28;20440;-43
2022/07/09 04:51:52;;;;;;;5.00;4.60;;;;;;;16.11;97.46;102292.31;5031031;28;20466;-47
2022/07/09 04:54:20;;;;;;;4.50;4.13;;;;;;;16.11;98.82;102296.88;5031448;28;20428;-46
2022/07/09 04:56:47;;;;;;;4.47;4.17;;;;;;;16.05;99.42;102296.63;5031827;28;20973;-44
2022/07/09 04:59:15;;;;;;;6.53;4.77;;;;;;;16.16;97.96;102289.88;5031744;28;20442;-45
2022/07/09 05:01:43;;;;;;;4.33;3.97;;;;;;;16.28;98.55;102282.91;5056760;22;20449;-45
2022/07/09 05:04:10;;;;;;;5.00;4.60;;;;;;;16.34;99.69;102286.66;5031224;28;20424;-45
2022/07/09 05:06:39;;;;;;;7.37;4.63;;;;;;;16.25;100.00;102293.22;5031556;28;20444;-46
2022/07/09 05:09:07;;;;;;;5.20;4.60;;;;;;;16.26;100.00;102290.38;5032368;28;20440;-45
2022/07/09 05:11:35;;;;;;;5.00;4.50;;;;;;;16.27;100.00;102289.34;5035244;28;20868;-45
2022/07/09 05:14:03;;;;;;;5.97;4.53;;;;;;;16.28;100.00;102282.91;5035329;28;20791;-46
2022/07/09 05:16:31;;;;;;;5.00;4.50;;;;;;;16.39;100.00;102285.06;5035442;28;20530;-49
2022/07/09 05:18:58;;;;;;;6.20;4.00;;;;;;;16.53;100.00;102286.81;5035351;28;20436;-49
2022/07/09 05:21:26;;;;;;;6.27;5.00;;;;;;;16.57;100.00;102288.13;5034526;28;20548;-47
2022/07/09 05:23:55;;;;;;;6.17;4.00;;;;;;;16.66;100.00;102285.25;5035184;28;20886;-45
2022/07/09 05:26:22;;;;;;;5.43;3.83;;;;;;;16.52;100.00;102295.06;5035301;28;20551;-48
2022/07/09 05:28:50;;;;;;;3.63;3.43;;;;;;;16.49;100.00;102300.84;5035980;28;20540;-51
2022/07/09 05:31:18;;;;;;;4.23;3.30;;;;;;;16.39;100.00;102284.25;5046138;28;20497;-48
2022/07/09 05:34:03;;;;;;;4.63;3.60;;;;;;;16.43;100.00;102286.31;5045371;28;20462;-45
2022/07/09 05:36:30;;;;;;;4.50;4.10;;;;;;;16.51;100.00;102288.06;5055002;28;20526;-49
2022/07/09 05:39:00;;;;;;;4.87;3.90;;;;;;;16.57;100.00;102292.69;5055070;28;21019;-45
2022/07/09 05:41:28;;;;;;;5.20;4.20;;;;;;;16.57;100.00;102285.44;5054382;28;20489;-46
2022/07/09 05:43:56;;;;;;;3.80;3.50;;;;;;;16.68;100.00;102288.56;5054787;28;20434;-45
2022/07/09 05:46:24;;;;;;;3.67;3.37;;;;;;;16.75;100.00;102287.59;5055240;28;20867;-45
2022/07/09 05:48:51;;;;;;;6.17;3.47;;;;;;;16.84;100.00;102283.69;5054881;28;20441;-50
2022/07/09 05:51:19;;;;;;;6.53;4.10;;;;;;;16.99;100.00;102281.66;5054665;28;20470;-49
2022/07/09 05:53:47;;;;;;;5.13;3.50;;;;;;;17.09;100.00;102275.91;5055302;28;20508;-52
2022/07/09 05:56:16;;;;;;;4.30;3.97;;;;;;;17.22;100.00;102272.44;5055510;28;20470;-52
2022/07/09 05:58:44;;;;;;;6.80;4.20;;;;;;;18.21;100.00;102266.09;5055007;28;20431;-51
2022/07/09 06:01:13;;;;;;;5.10;3.70;;;;;;;19.71;97.35;102264.63;5055262;28;20538;-51
2022/07/09 06:03:40;;;;;;;4.70;3.80;;;;;;;20.49;84.69;102266.88;5056847;28;20431;-49
2022/07/09 06:06:08;;;;;;;3.93;3.63;;;;;;;21.71;77.41;102263.78;5056105;28;20927;-49
2022/07/09 06:08:36;;;;;;;4.90;3.63;;;;;;;21.88;74.63;102267.50;5055589;28;20434;-49
2022/07/09 06:11:05;;;;;;;3.70;3.40;;;;;;;21.26;76.83;102269.69;5054696;28;21285;-53
2022/07/09 06:13:34;;;;;;;5.87;3.80;;;;;;;20.45;81.15;102262.94;5054880;28;20431;-51
2022/07/09 06:16:01;;;;;;;4.50;4.10;;;;;;;20.25;82.22;102257.72;5055478;28;20427;-53
2022/07/09 06:18:29;;;;;;;3.83;3.43;;;;;;;19.94;84.26;102264.03;5055174;28;20521;-46
2022/07/09 06:20:57;;;;;;;5.07;3.70;;;;;;;21.28;77.57;102259.41;5052444;28;20832;-45
2022/07/09 06:23:25;;;;;;;3.63;3.33;;;;;;;21.30;78.11;102267.31;5053958;28;20426;-51
2022/07/09 06:25:52;;;;;;;5.90;3.00;;;;;;;22.32;73.18;102263.34;5053901;28;20481;-52
2022/07/09 06:28:20;;;;;;;4.93;3.47;;;;;;;23.66;67.10;102257.38;5053806;28;20431;-49
2022/07/09 06:30:49;;;;;;;4.00;3.53;;;;;;;23.40;64.21;102261.56;5053417;28;20521;-51
2022/07/09 06:33:16;;;;;;;3.70;3.40;;;;;;;22.85;66.67;102263.19;5046977;28;20515;-47
2022/07/09 06:35:44;;;;;;;8.47;3.97;;;;;;;21.57;71.13;102265.84;5050800;28;20515;-49
2022/07/09 06:38:12;;;;;;;4.80;4.33;;;;;;;20.57;73.84;102272.00;5053768;28;20433;-54
2022/07/09 06:40:40;;;;;;;4.50;4.10;;;;;;;19.96;77.91;102270.06;5052936;28;20518;-51
2022/07/09 06:43:09;;;;;;;4.57;4.20;;;;;;;19.82;80.73;102263.09;5053574;28;20530;-53
2022/07/09 06:45:36;;;;;;;7.30;4.20;;;;;;;19.40;81.68;102277.34;5053654;28;20561;-54
2022/07/09 06:48:06;;;;;;;5.63;3.80;;;;;;;19.98;82.61;102269.84;5053620;28;20469;-47
2022/07/09 06:50:34;;;;;;;4.60;4.20;;;;;;;21.47;74.71;102258.28;5053586;28;20427;-54
2022/07/09 06:53:01;;;;;;;4.57;4.27;;;;;;;22.12;69.93;102261.00;5052786;28;20458;-48
2022/07/09 06:55:30;;;;;;;4.23;3.73;;;;;;;22.91;64.65;102254.88;5053270;28;20522;-51
2022/07/09 06:57:59;;;;;;;6.80;3.87;;;;;;;23.05;60.86;102250.81;5053434;28;20529;-52
2022/07/09 07:00:27;;;;;;;4.27;3.87;;;;;;;23.44;60.72;102246.38;5052078;28;20522;-47
2022/07/09 07:02:59;;;;;;;5.43;4.10;;;;;;;23.91;58.14;102243.34;5052119;28;20473;-46
2022/07/09 07:05:28;;;;;;;3.50;3.30;;;;;;;24.66;57.54;102243.63;5053069;28;20979;-51
2022/07/09 07:07:56;;;;;;;4.50;4.10;;;;;;;24.88;55.53;102249.09;5053048;28;20443;-50
2022/07/09 07:10:24;;;;;;;4.40;4.10;;;;;;;24.29;56.56;102248.00;5053329;28;20437;-52
2022/07/09 07:12:51;;;;;;;4.43;3.83;;;;;;;24.25;56.14;102255.88;5052223;28;20466;-47
2022/07/09 07:15:19;;;;;;;4.17;3.90;;;;;;;24.19;56.38;102254.16;5052505;28;20489;-49
2022/07/09 07:17:48;;;;;;;4.73;4.00;;;;;;;22.71;61.20;102250.91;5052793;28;20562;-50
2022/07/09 07:20:24;;;;;;;5.20;4.80;;;;;;;22.07;65.04;102260.06;5052706;28;20452;-50
2022/07/09 07:22:54;;;;;;;5.33;4.83;;;;;;;22.18;65.95;102261.94;5051992;28;20467;-52
2022/07/09 07:25:21;;;;;;;4.37;4.00;;;;;;;21.58;66.84;102259.38;5052796;28;20433;-51
2022/07/09 07:27:50;;;;;;;4.63;4.23;;;;;;;20.96;70.46;102266.09;5052834;28;20430;-49
2022/07/09 07:30:18;;;;;;;5.20;4.40;;;;;;;21.00;71.17;102259.13;5052162;28;20957;-49
2022/07/09 07:32:45;;;;;;;6.87;4.50;;;;;;;21.03;69.72;102258.69;5049076;28;20964;-48
2022/07/09 07:35:13;;;;;;;4.47;4.07;;;;;;;21.53;66.73;102259.25;5033507;28;20524;-48
2022/07/09 07:37:40;;;;;;;7.13;4.23;;;;;;;20.84;69.91;102257.91;5013068;28;20815;-52
2022/07/09 07:40:11;;;;;;;4.60;4.17;;;;;;;20.39;69.41;102265.50;5012772;28;20818;-48
2022/07/09 07:42:39;;;;;;;3.93;3.73;;;;;;;20.76;67.53;102266.31;5011591;28;20918;-51
2022/07/09 07:45:08;;;;;;;4.80;4.50;;;;;;;21.37;64.14;102260.75;5012677;28;20523;-54
2022/07/09 07:47:35;;;;;;;4.40;4.20;;;;;;;21.52;61.84;102263.03;5012402;28;20555;-52
2022/07/09 07:50:04;;;;;;;4.10;3.80;;;;;;;21.82;60.75;102266.50;5012659;28;20516;-50
2022/07/09 07:52:32;;;;;;;4.00;3.80;;;;;;;22.25;58.95;102260.75;5011940;28;20537;-52
2022/07/09 07:54:59;;;;;;;3.90;3.70;;;;;;;22.18;60.07;102261.94;5012576;28;20432;-54
2022/07/09 07:57:28;;;;;;;4.50;4.30;;;;;;;21.66;60.88;102260.91;5012126;28;20503;-51
2022/07/09 07:59:56;;;;;;;4.50;4.23;;;;;;;21.69;63.44;102258.56;5012348;28;21021;-49
2022/07/09 08:02:24;;;;;;;4.67;4.27;;;;;;;22.01;62.86;102262.66;5011642;28;20472;-53
2022/07/09 08:04:51;;;;;;;4.57;4.27;;;;;;;21.34;63.65;102272.06;5012581;28;20528;-52
2022/07/09 08:07:19;;;;;;;4.50;4.20;;;;;;;20.74;66.56;102264.91;5012049;28;20582;-50
2022/07/09 08:09:47;;;;;;;4.40;4.17;;;;;;;19.81;70.12;102274.97;5012442;28;20432;-53
2022/07/09 08:12:14;;;;;;;4.87;4.67;;;;;;;19.83;73.17;102281.00;5011395;28;20507;-49
2022/07/09 08:14:43;;;;;;;5.20;4.80;;;;;;;20.04;72.97;102283.31;5012386;28;20523;-49
2022/07/09 08:17:11;;;;;;;4.23;4.03;;;;;;;19.92;71.54;102287.81;5012457;28;20458;-50
2022/07/09 08:19:39;;;;;;;4.33;4.13;;;;;;;19.75;72.88;102292.09;5012185;28;20428;-46
2022/07/09 08:22:06;;;;;;;4.20;3.90;;;;;;;19.78;73.73;102284.38;5011358;28;20472;-50
2022/07/09 08:24:34;;;;;;;4.80;4.40;;;;;;;19.69;74.25;102280.25;5012273;28;20436;-47
2022/07/09 08:27:02;;;;;;;5.27;4.70;;;;;;;19.78;72.58;102272.69;5011922;28;20472;-48
2022/07/09 08:29:29;;;;;;;4.70;4.30;;;;;;;19.72;70.14;102265.47;5012365;28;20512;-45
2022/07/09 08:31:58;;;;;;;4.33;4.00;;;;;;;19.76;69.71;102274.81;5015746;28;20556;-50
2022/07/09 08:34:26;;;;;;;4.60;4.50;;;;;;;19.84;70.98;102279.94;5037124;28;20460;-49
2022/07/09 08:36:54;;;;;;;4.80;4.53;;;;;;;20.13;68.58;102273.84;5027045;28;20946;-51
2022/07/09 08:39:22;;;;;;;7.53;4.50;;;;;;;19.70;70.29;102275.69;5050218;28;20518;-49
2022/07/09 08:41:51;;;;;;;4.53;4.27;;;;;;;19.50;68.97;102283.13;5033351;28;20506;-48
2022/07/09 08:44:20;;;;;;;4.77;4.43;;;;;;;19.97;69.82;102274.44;5034279;28;20518;-47
2022/07/09 08:46:48;;;;;;;5.20;4.83;;;;;;;20.51;69.00;102272.88;5035949;28;20467;-48
2022/07/09 08:49:18;;;;;;;4.33;4.00;;;;;;;20.53;61.74;102263.47;5030709;28;20534;-49
2022/07/09 08:51:46;;;;;;;4.20;4.00;;;;;;;20.31;66.35;102273.06;5041224;28;20834;-46
2022/07/09 08:54:16;;;;;;;5.07;4.63;;;;;;;19.96;66.86;102266.50;5040100;28;20434;-48
2022/07/09 08:56:43;;;;;;;4.83;4.53;;;;;;;19.88;67.72;102265.75;5050035;28;20526;-50
2022/07/09 08:59:11;;;;;;;5.83;4.30;;;;;;;19.58;68.38;102270.16;5030167;28;20432;-50
2022/07/09 09:01:39;;;;;;;5.40;5.10;;;;;;;19.14;69.62;102264.78;5037724;28;20898;-46
2022/07/09 09:04:07;;;;;;;5.37;4.97;;;;;;;18.98;69.08;102265.28;5025261;28;20428;-46
2022/07/09 09:06:40;;;;;;;5.20;4.80;;;;;;;18.98;70.21;102273.38;5049659;28;20478;-51
2022/07/09 09:09:18;;;;;;;5.00;4.60;;;;;;;19.40;70.03;102263.81;5048774;28;20465;-49
2022/07/09 09:11:48;;;;;;;6.07;4.70;;;;;;;20.01;64.43;102259.38;5046766;28;20557;-45
2022/07/09 09:14:22;;;;;;;5.00;4.60;;;;;;;19.93;64.59;102264.25;5029695;28;21009;-51
2022/07/09 09:16:50;;;;;;;4.50;4.20;;;;;;;19.63;67.85;102269.47;5031080;28;20885;-46
2022/07/09 09:19:18;;;;;;;4.90;4.70;;;;;;;19.92;64.34;102263.44;5029946;28;20451;-47
2022/07/09 09:21:53;;;;;;;4.70;4.30;;;;;;;19.35;66.96;102270.66;5028247;28;21240;-48
2022/07/09 09:24:24;;;;;;;5.33;4.30;;;;;;;19.21;69.51;102260.97;5029285;28;20478;-48
2022/07/09 09:26:52;;;;;;;7.13;4.97;;;;;;;18.99;71.84;102266.94;5032334;28;20475;-48
2022/07/09 09:29:19;;;;;;;7.27;4.87;;;;;;;19.30;70.86;102277.78;5046208;28;20455;-45
2022/07/09 09:31:48;;;;;;;6.03;4.47;;;;;;;19.33;66.06;102278.19;5037767;28;20570;-47
2022/07/09 09:34:17;;;;;;;5.50;5.00;;;;;;;19.65;63.63;102267.41;5040610;28;20431;-46
2022/07/09 09:36:47;;;;;;;5.77;3.83;;;;;;;19.97;63.08;102268.19;5036228;28;20436;-49
2022/07/09 09:39:17;;;;;;;4.97;4.47;;;;;;;19.59;63.31;102262.88;5029881;28;20519;-48
2022/07/09 09:41:46;;;;;;;4.93;4.10;;;;;;;19.13;66.99;102257.72;5031340;28;20551;-47
2022/07/09 09:44:15;;;;;;;4.23;3.70;;;;;;;19.50;65.88;102272.31;5048555;28;20505;-47
2022/07/09 09:46:44;;;;;;;4.23;3.90;;;;;;;19.49;66.14;102259.81;5049732;28;20526;-46
2022/07/09 09:49:15;;;;;;;3.90;3.50;;;;;;;19.41;62.51;102268.19;5033323;28;20522;-47
2022/07/09 09:51:52;;;;;;;4.57;3.03;;;;;;;19.42;63.05;102254.44;5046531;28;20494;-45
2022/07/09 09:54:21;;;;;;;6.47;3.90;;;;;;;19.64;61.13;102269.28;5028877;28;20435;-51
2022/07/09 09:56:49;;;;;;;6.63;3.73;;;;;;;19.67;62.26;102273.41;5032168;28;20535;-46
2022/07/09 09:59:17;;;;;;;4.27;3.63;;;;;;;19.47;64.45;102272.72;5049288;28;20431;-47
2022/07/09 10:01:46;;;;;;;5.13;3.33;;;;;;;19.45;61.70;102267.53;5051391;28;20478;-47
2022/07/09 10:04:15;;;;;;;3.80;3.50;;;;;;;19.49;62.40;102273.34;5032768;28;20865;-46
2022/07/09 10:06:44;;;;;;;4.30;3.90;;;;;;;19.58;63.62;102274.72;5032967;28;20848;-47
2022/07/09 10:09:14;;;;;;;3.90;3.70;;;;;;;19.63;62.83;102277.59;5030569;28;20436;-48
2022/07/09 10:11:43;;;;;;;5.63;3.80;;;;;;;19.54;64.20;102281.63;5049657;28;20918;-46
2022/07/09 10:14:18;;;;;;;4.43;3.73;;;;;;;19.34;63.46;102277.16;5032151;28;20427;-47
2022/07/09 10:16:46;;;;;;;4.33;3.20;;;;;;;18.93;61.12;102265.09;5045681;28;20466;-50
2022/07/09 10:19:24;;;;;;;4.77;3.50;;;;;;;18.55;61.63;102276.66;5032362;28;20921;-45
2022/07/09 10:21:53;;;;;;;7.90;4.03;;;;;;;18.38;63.96;102280.81;5031885;28;20542;-47
2022/07/09 10:24:26;;;;;;;3.90;3.27;;;;;;;18.87;64.32;102280.31;5031789;28;21036;-50
2022/07/09 10:27:03;;;;;;;3.83;3.47;;;;;;;19.38;60.33;102276.72;5038866;28;20522;-47
2022/07/09 10:29:31;;;;;;;5.90;4.00;;;;;;;19.82;57.77;102268.50;5047478;28;20506;-47
2022/07/09 10:31:59;;;;;;;6.37;4.13;;;;;;;20.56;56.70;102259.47;5033843;28;20550;-46
2022/07/09 10:34:44;;;;;;;3.97;3.60;;;;;;;20.32;57.69;102272.03;5031247;28;20446;-49
2022/07/09 10:37:12;;;;;;;3.80;3.40;;;;;;;20.08;56.28;102264.72;5035127;28;20469;-47
2022/07/09 10:39:41;;;;;;;3.97;3.30;;;;;;;19.82;54.98;102266.63;5052808;28;20430;-50
2022/07/09 10:42:19;;;;;;;3.80;3.50;;;;;;;20.21;54.00;102265.47;5051313;28;20613;-45
2022/07/09 10:44:49;;;;;;;5.33;3.60;;;;;;;20.26;55.68;102268.34;5046039;28;20466;-47
2022/07/09 10:47:18;;;;;;;5.10;3.37;;;;;;;20.27;54.99;102256.47;5032155;28;20531;-47
2022/07/09 10:49:45;;;;;;;3.70;3.40;;;;;;;20.08;57.28;102254.72;5032448;28;20522;-46
2022/07/09 10:52:13;;;;;;;7.93;3.60;;;;;;;20.25;56.07;102261.25;5031626;28;20474;-50
2022/07/09 10:54:52;;;;;;;3.73;3.43;;;;;;;20.32;52.58;102262.03;5033128;28;20436;-54
2022/07/09 10:57:20;;;;;;;3.90;3.60;;;;;;;20.51;50.55;102246.63;5032814;28;20452;-51
2022/07/09 10:59:48;;;;;;;3.43;3.23;;;;;;;20.46;51.09;102251.06;5033983;28;20478;-53
2022/07/09 11:02:20;;;;;;;3.47;3.23;;;;;;;20.14;50.32;102256.56;5032126;28;20472;-49
2022/07/09 11:04:52;;;;;;;2.90;2.70;;;;;;;19.97;51.79;102260.88;5033053;28;20870;-49
2022/07/09 11:07:21;;;;;;;3.77;3.40;;;;;;;19.18;54.81;102271.41;5031875;28;20458;-49
2022/07/09 11:09:51;;;;;;;7.13;3.67;;;;;;;19.35;55.17;102254.44;5033994;28;20523;-50
2022/07/09 11:12:21;;;;;;;3.63;3.33;;;;;;;19.24;53.92;102249.72;5031015;28;20486;-49
2022/07/09 11:14:50;;;;;;;4.30;3.70;;;;;;;19.69;56.28;102247.78;5032853;28;20566;-50
2022/07/09 11:17:20;;;;;;;3.53;3.30;;;;;;;20.30;54.39;102252.47;5031115;28;20431;-49
2022/07/09 11:19:49;;;;;;;5.10;3.47;;;;;;;20.84;53.12;102254.34;5032869;28;20435;-50
2022/07/09 11:22:16;;;;;;;3.73;3.53;;;;;;;20.89;53.71;102259.91;5030600;28;20467;-48
2022/07/09 11:24:44;;;;;;;3.60;3.33;;;;;;;20.75;52.09;102264.69;5032160;28;20439;-50
2022/07/09 11:27:14;;;;;;;3.63;3.33;;;;;;;20.83;51.88;102258.13;5032004;28;20522;-48